createdAt,value
2023-01-07T00:00:26.132Z,12.03
2023-01-07T00:01:26.046Z,12.08
2023-01-07T00:02:26.272Z,11.98
2023-01-07T00:03:26.181Z,12.05
2023-01-07T00:04:26.123Z,12.05
2023-01-07T00:05:26.147Z,12.08
2023-01-07T00:06:26.175Z,12.03
2023-01-07T00:07:26.201Z,12.04
2023-01-07T00:08:26.227Z,12.00
2023-01-07T00:09:26.250Z,11.89
2023-01-07T00:10:26.279Z,11.98
2023-01-07T00:11:26.305Z,11.95
2023-01-07T00:12:26.335Z,11.91
2023-01-07T00:13:26.357Z,11.95
2023-01-07T00:14:26.386Z,12.04
2023-01-07T00:15:26.409Z,11.97
2023-01-07T00:16:26.532Z,11.91
2023-01-07T00:17:26.473Z,12.00
2023-01-07T00:18:26.603Z,12.07
2023-01-07T00:19:26.515Z,11.94
2023-01-07T00:20:26.541Z,11.94
2023-01-07T00:21:26.566Z,11.89
2023-01-07T00:22:26.595Z,11.98
2023-01-07T00:23:26.620Z,11.95
2023-01-07T00:24:26.648Z,11.98
2023-01-07T00:25:26.672Z,11.98
2023-01-07T00:26:26.699Z,12.05
2023-01-07T00:27:26.730Z,12.04
2023-01-07T00:28:26.753Z,11.89
2023-01-07T00:29:26.788Z,11.95
2023-01-07T00:30:26.805Z,11.89
2023-01-07T00:31:26.858Z,11.91
2023-01-07T00:32:26.857Z,11.94
2023-01-07T00:33:26.884Z,11.89
2023-01-07T00:34:27.036Z,11.94
2023-01-07T00:35:26.939Z,11.89
2023-01-07T00:36:26.962Z,11.94
2023-01-07T00:37:26.986Z,11.88
2023-01-07T00:38:27.020Z,11.88
2023-01-07T00:39:27.047Z,11.89
2023-01-07T00:40:27.073Z,11.91
2023-01-07T00:41:27.093Z,11.95
2023-01-07T00:42:27.139Z,12.04
2023-01-07T00:43:27.153Z,11.98
2023-01-07T00:44:27.174Z,11.98
2023-01-07T00:45:27.201Z,12.04
2023-01-07T00:46:27.261Z,11.97
2023-01-07T00:47:27.252Z,11.94
2023-01-07T00:48:27.278Z,11.94
2023-01-07T00:49:27.303Z,11.94
2023-01-07T00:50:27.356Z,11.91
2023-01-07T00:51:27.360Z,11.95
2023-01-07T00:52:27.389Z,11.89
2023-01-07T00:53:27.413Z,11.97
2023-01-07T00:54:27.459Z,12.05
2023-01-07T00:55:27.661Z,11.86
2023-01-07T00:56:27.503Z,11.95
2023-01-07T00:57:27.515Z,11.89
2023-01-07T00:58:27.548Z,11.91
2023-01-07T00:59:27.570Z,11.97
2023-01-07T01:00:27.594Z,11.89
2023-01-07T01:01:27.732Z,11.94
2023-01-07T01:02:27.688Z,12.01
2023-01-07T01:03:27.669Z,11.97
2023-01-07T01:04:27.699Z,11.98
2023-01-07T01:05:27.722Z,11.89
2023-01-07T01:06:27.777Z,11.86
2023-01-07T01:07:27.777Z,12.00
2023-01-07T01:08:27.807Z,11.88
2023-01-07T01:09:27.828Z,11.89
2023-01-07T01:10:27.856Z,11.97
2023-01-07T01:11:27.886Z,11.86
2023-01-07T01:12:27.909Z,11.94
2023-01-07T01:13:27.941Z,11.94
2023-01-07T01:14:27.957Z,11.82
2023-01-07T01:15:27.991Z,11.88
2023-01-07T01:16:28.117Z,11.94
2023-01-07T01:17:28.036Z,11.86
2023-01-07T01:18:28.073Z,11.89
2023-01-07T01:19:28.097Z,11.88
2023-01-07T01:20:28.121Z,11.88
2023-01-07T01:21:28.144Z,11.86
2023-01-07T01:22:28.296Z,11.88
2023-01-07T01:23:28.194Z,11.94
2023-01-07T01:24:28.238Z,11.85
2023-01-07T01:25:28.246Z,11.76
2023-01-07T01:26:28.274Z,11.86
2023-01-07T01:27:28.301Z,11.85
2023-01-07T01:28:28.327Z,11.89
2023-01-07T01:29:28.349Z,11.79
2023-01-07T01:30:28.379Z,11.82
2023-01-07T01:31:28.498Z,11.82
2023-01-07T01:32:28.446Z,11.82
2023-01-07T01:33:28.462Z,11.81
2023-01-07T01:34:28.484Z,11.73
2023-01-07T01:35:28.512Z,11.78
2023-01-07T01:36:28.538Z,11.81
2023-01-07T01:37:28.562Z,11.75
2023-01-07T01:38:28.702Z,11.75
2023-01-07T01:39:28.616Z,11.76
2023-01-07T01:40:28.643Z,11.76
2023-01-07T01:41:28.679Z,11.76
2023-01-07T01:42:28.694Z,11.71
2023-01-07T01:43:28.726Z,11.78
2023-01-07T01:44:28.747Z,11.70
2023-01-07T01:45:28.774Z,11.75
2023-01-07T01:46:28.932Z,11.68
2023-01-07T01:47:28.833Z,11.67
2023-01-07T01:48:28.852Z,11.70
2023-01-07T01:49:28.875Z,11.66
2023-01-07T01:50:28.906Z,11.63
2023-01-07T01:51:28.927Z,11.66
2023-01-07T01:52:28.961Z,11.61
2023-01-07T01:53:28.980Z,11.61
2023-01-07T01:54:29.168Z,11.61
2023-01-07T01:55:29.037Z,11.63
2023-01-07T01:56:29.066Z,11.68
2023-01-07T01:57:29.085Z,11.68
2023-01-07T01:58:29.115Z,11.61
2023-01-07T01:59:29.146Z,11.57
2023-01-07T02:00:29.236Z,11.57
2023-01-07T02:01:29.307Z,11.53
2023-01-07T02:02:29.248Z,11.67
2023-01-07T02:03:29.242Z,11.59
2023-01-07T02:04:29.268Z,11.56
2023-01-07T02:05:29.293Z,11.56
2023-01-07T02:06:29.323Z,11.57
2023-01-07T02:07:29.343Z,11.57
2023-01-07T02:08:29.372Z,11.57
2023-01-07T02:09:29.402Z,11.56
2023-01-07T02:10:29.550Z,11.64
2023-01-07T02:11:29.460Z,11.52
2023-01-07T02:12:29.477Z,11.56
2023-01-07T02:13:29.516Z,11.52
2023-01-07T02:14:29.529Z,11.59
2023-01-07T02:15:29.552Z,11.43
2023-01-07T02:16:29.639Z,11.64
2023-01-07T02:17:29.604Z,11.41
2023-01-07T02:18:29.631Z,11.42
2023-01-07T02:19:29.655Z,11.52
2023-01-07T02:20:29.685Z,11.39
2023-01-07T02:21:29.709Z,11.51
2023-01-07T02:22:29.734Z,11.46
2023-01-07T02:23:29.766Z,11.41
2023-01-07T02:24:29.787Z,11.35
2023-01-07T02:25:29.823Z,11.41
2023-01-07T02:26:29.982Z,11.39
2023-01-07T02:27:29.865Z,11.34
2023-01-07T02:28:29.891Z,11.31
2023-01-07T02:29:29.931Z,11.31
2023-01-07T02:30:29.941Z,11.23
2023-01-07T02:31:30.066Z,11.24
2023-01-07T02:32:29.994Z,11.18
2023-01-07T02:33:30.029Z,11.18
2023-01-07T02:34:30.058Z,11.20
2023-01-07T02:35:30.122Z,11.12
2023-01-07T02:36:30.097Z,11.12
2023-01-07T02:37:30.122Z,11.06
2023-01-07T02:38:30.148Z,11.03
2023-01-07T02:39:30.194Z,11.05
2023-01-07T02:40:30.198Z,10.94
2023-01-07T02:41:30.226Z,10.97
2023-01-07T02:42:30.368Z,10.92
2023-01-07T02:43:30.286Z,11.00
2023-01-07T02:44:30.301Z,10.91
2023-01-07T02:45:30.393Z,10.98
2023-01-07T02:46:30.354Z,10.90
2023-01-07T02:47:30.383Z,10.94
2023-01-07T02:48:30.415Z,10.92
2023-01-07T02:49:30.434Z,10.92
2023-01-07T02:50:30.457Z,10.88
2023-01-07T02:51:30.483Z,11.02
2023-01-07T02:52:30.517Z,11.00
2023-01-07T02:53:30.536Z,11.02
2023-01-07T02:54:30.558Z,10.91
2023-01-07T02:55:30.585Z,10.92
2023-01-07T02:56:30.611Z,10.87
2023-01-07T02:57:30.636Z,10.85
2023-01-07T02:58:30.780Z,10.85
2023-01-07T02:59:30.839Z,10.80
2023-01-07T03:00:30.712Z,10.77
2023-01-07T03:01:30.905Z,10.67
2023-01-07T03:02:30.772Z,10.67
2023-01-07T03:03:30.796Z,10.69
2023-01-07T03:04:30.819Z,10.76
2023-01-07T03:05:30.841Z,10.67
2023-01-07T03:06:30.866Z,10.66
2023-01-07T03:07:30.896Z,10.69
2023-01-07T03:08:30.919Z,10.59
2023-01-07T03:09:30.945Z,10.49
2023-01-07T03:10:30.968Z,10.55
2023-01-07T03:11:30.995Z,10.57
2023-01-07T03:12:31.026Z,10.57
2023-01-07T03:13:31.047Z,10.57
2023-01-07T03:14:31.188Z,10.54
2023-01-07T03:15:31.102Z,10.55
2023-01-07T03:16:31.175Z,10.44
2023-01-07T03:17:31.148Z,10.52
2023-01-07T03:18:31.173Z,10.54
2023-01-07T03:19:31.200Z,10.46
2023-01-07T03:20:31.224Z,10.47
2023-01-07T03:21:31.256Z,10.52
2023-01-07T03:22:31.274Z,10.49
2023-01-07T03:23:31.306Z,10.42
2023-01-07T03:24:31.349Z,10.33
2023-01-07T03:25:31.356Z,10.46
2023-01-07T03:26:31.378Z,10.39
2023-01-07T03:27:31.404Z,10.42
2023-01-07T03:28:31.427Z,10.42
2023-01-07T03:29:31.456Z,10.41
2023-01-07T03:30:31.599Z,10.42
2023-01-07T03:31:31.560Z,10.36
2023-01-07T03:32:31.528Z,10.39
2023-01-07T03:33:31.570Z,10.41
2023-01-07T03:34:31.583Z,10.36
2023-01-07T03:35:31.607Z,10.38
2023-01-07T03:36:31.632Z,10.39
2023-01-07T03:37:31.656Z,10.31
2023-01-07T03:38:31.686Z,10.35
2023-01-07T03:39:31.710Z,10.33
2023-01-07T03:40:31.732Z,10.41
2023-01-07T03:41:31.762Z,10.33
2023-01-07T03:42:31.783Z,10.33
2023-01-07T03:43:31.809Z,10.36
2023-01-07T03:44:31.834Z,10.39
2023-01-07T03:45:31.881Z,10.35
2023-01-07T03:46:32.001Z,10.52
2023-01-07T03:47:31.913Z,10.46
2023-01-07T03:48:31.936Z,10.42
2023-01-07T03:49:31.961Z,10.41
2023-01-07T03:50:31.991Z,10.41
2023-01-07T03:51:32.012Z,10.47
2023-01-07T03:52:32.037Z,10.38
2023-01-07T03:53:32.064Z,10.44
2023-01-07T03:54:32.089Z,10.38
2023-01-07T03:55:32.123Z,10.33
2023-01-07T03:56:32.137Z,10.35
2023-01-07T03:57:32.163Z,10.29
2023-01-07T03:58:32.187Z,10.39
2023-01-07T03:59:32.217Z,10.38
2023-01-07T04:00:32.240Z,10.38
2023-01-07T04:01:32.387Z,10.31
2023-01-07T04:02:32.408Z,10.25
2023-01-07T04:03:32.322Z,10.23
2023-01-07T04:04:32.505Z,10.17
2023-01-07T04:05:32.366Z,10.23
2023-01-07T04:06:32.391Z,10.20
2023-01-07T04:07:32.427Z,10.18
2023-01-07T04:08:32.442Z,10.25
2023-01-07T04:09:32.467Z,10.21
2023-01-07T04:10:32.499Z,10.36
2023-01-07T04:11:32.515Z,10.28
2023-01-07T04:12:32.540Z,10.17
2023-01-07T04:13:32.578Z,10.26
2023-01-07T04:14:32.589Z,10.20
2023-01-07T04:15:32.653Z,10.31
2023-01-07T04:16:32.729Z,10.36
2023-01-07T04:17:32.674Z,10.18
2023-01-07T04:18:32.807Z,10.39
2023-01-07T04:19:32.718Z,10.38
2023-01-07T04:20:32.746Z,10.31
2023-01-07T04:21:32.768Z,10.33
2023-01-07T04:22:32.790Z,10.41
2023-01-07T04:23:32.822Z,10.39
2023-01-07T04:24:32.864Z,10.44
2023-01-07T04:25:32.867Z,10.52
2023-01-07T04:26:32.893Z,10.58
2023-01-07T04:27:32.920Z,10.57
2023-01-07T04:28:32.942Z,10.61
2023-01-07T04:29:32.977Z,10.63
2023-01-07T04:30:33.042Z,10.54
2023-01-07T04:31:33.019Z,10.58
2023-01-07T04:32:33.053Z,10.69
2023-01-07T04:33:33.076Z,10.66
2023-01-07T04:34:33.214Z,10.72
2023-01-07T04:35:33.123Z,10.65
2023-01-07T04:36:33.152Z,10.75
2023-01-07T04:37:33.170Z,10.63
2023-01-07T04:38:33.194Z,10.75
2023-01-07T04:39:33.220Z,10.66
2023-01-07T04:40:33.245Z,10.70
2023-01-07T04:41:33.271Z,10.63
2023-01-07T04:42:33.297Z,10.69
2023-01-07T04:43:33.321Z,10.69
2023-01-07T04:44:33.353Z,10.69
2023-01-07T04:45:33.375Z,10.76
2023-01-07T04:46:33.416Z,10.67
2023-01-07T04:47:33.442Z,10.70
2023-01-07T04:48:33.452Z,10.70
2023-01-07T04:49:33.472Z,10.67
2023-01-07T04:50:33.623Z,10.67
2023-01-07T04:51:33.525Z,10.76
2023-01-07T04:52:33.549Z,10.69
2023-01-07T04:53:33.578Z,10.76
2023-01-07T04:54:33.599Z,10.76
2023-01-07T04:55:33.626Z,10.65
2023-01-07T04:56:33.660Z,10.73
2023-01-07T04:57:33.677Z,10.65
2023-01-07T04:58:33.703Z,10.76
2023-01-07T04:59:33.864Z,10.73
2023-01-07T05:00:33.758Z,10.79
2023-01-07T05:01:33.983Z,10.75
2023-01-07T05:02:33.812Z,10.80
2023-01-07T05:03:33.829Z,10.73
2023-01-07T05:04:33.940Z,10.85
2023-01-07T05:05:33.879Z,10.79
2023-01-07T05:06:34.019Z,10.75
2023-01-07T05:07:33.945Z,10.79
2023-01-07T05:08:33.959Z,10.77
2023-01-07T05:09:33.985Z,10.79
2023-01-07T05:10:34.006Z,10.73
2023-01-07T05:11:34.033Z,10.80
2023-01-07T05:12:34.057Z,10.76
2023-01-07T05:13:34.083Z,10.77
2023-01-07T05:14:34.111Z,10.80
2023-01-07T05:15:34.134Z,10.80
2023-01-07T05:16:34.210Z,10.83
2023-01-07T05:17:34.185Z,10.91
2023-01-07T05:18:34.218Z,10.91
2023-01-07T05:19:34.235Z,10.90
2023-01-07T05:20:34.265Z,10.98
2023-01-07T05:21:34.291Z,11.03
2023-01-07T05:22:34.432Z,11.03
2023-01-07T05:23:34.339Z,11.03
2023-01-07T05:24:34.364Z,11.21
2023-01-07T05:25:34.389Z,11.13
2023-01-07T05:26:34.415Z,11.12
2023-01-07T05:27:34.441Z,11.15
2023-01-07T05:28:34.466Z,11.13
2023-01-07T05:29:34.499Z,11.18
2023-01-07T05:30:34.549Z,11.15
2023-01-07T05:31:34.549Z,11.21
2023-01-07T05:32:34.600Z,11.20
2023-01-07T05:33:34.596Z,11.13
2023-01-07T05:34:34.618Z,11.18
2023-01-07T05:35:34.661Z,11.15
2023-01-07T05:36:34.680Z,11.18
2023-01-07T05:37:34.698Z,11.18
2023-01-07T05:38:34.842Z,11.20
2023-01-07T05:39:34.752Z,11.16
2023-01-07T05:40:34.781Z,11.13
2023-01-07T05:41:34.807Z,11.13
2023-01-07T05:42:34.826Z,11.05
2023-01-07T05:43:34.862Z,11.06
2023-01-07T05:44:34.879Z,11.10
2023-01-07T05:45:34.907Z,11.13
2023-01-07T05:46:34.973Z,11.21
2023-01-07T05:47:34.955Z,11.20
2023-01-07T05:48:34.992Z,11.15
2023-01-07T05:49:35.004Z,11.18
2023-01-07T05:50:35.036Z,11.18
2023-01-07T05:51:35.055Z,11.20
2023-01-07T05:52:35.080Z,11.15
2023-01-07T05:53:35.114Z,11.21
2023-01-07T05:54:35.273Z,11.21
2023-01-07T05:55:35.160Z,11.20
2023-01-07T05:56:35.184Z,11.18
2023-01-07T05:57:35.212Z,11.21
2023-01-07T05:58:35.235Z,11.24
2023-01-07T05:59:35.261Z,11.20
2023-01-07T06:00:35.288Z,11.23
2023-01-07T06:01:35.318Z,11.21
2023-01-07T06:02:35.341Z,11.16
2023-01-07T06:03:35.448Z,11.28
2023-01-07T06:04:35.426Z,11.33
2023-01-07T06:05:35.419Z,11.30
2023-01-07T06:06:35.464Z,11.28
2023-01-07T06:07:35.480Z,11.27
2023-01-07T06:08:35.549Z,11.38
2023-01-07T06:09:35.521Z,11.42
2023-01-07T06:10:35.658Z,11.31
2023-01-07T06:11:35.569Z,11.41
2023-01-07T06:12:35.596Z,11.28
2023-01-07T06:13:35.645Z,11.30
2023-01-07T06:14:35.646Z,11.26
2023-01-07T06:15:35.768Z,11.39
2023-01-07T06:16:35.696Z,11.35
2023-01-07T06:17:35.726Z,11.31
2023-01-07T06:18:35.747Z,11.43
2023-01-07T06:19:35.776Z,11.41
2023-01-07T06:20:35.798Z,11.38
2023-01-07T06:21:35.825Z,11.35
2023-01-07T06:22:35.850Z,11.42
2023-01-07T06:23:35.882Z,11.38
2023-01-07T06:24:35.898Z,11.45
2023-01-07T06:25:35.961Z,11.42
2023-01-07T06:26:36.084Z,11.35
2023-01-07T06:27:35.976Z,11.35
2023-01-07T06:28:36.009Z,11.41
2023-01-07T06:29:36.030Z,11.38
2023-01-07T06:30:36.060Z,11.41
2023-01-07T06:31:36.163Z,11.34
2023-01-07T06:32:36.105Z,11.39
2023-01-07T06:33:36.139Z,11.34
2023-01-07T06:34:36.153Z,11.34
2023-01-07T06:35:36.184Z,11.41
2023-01-07T06:36:36.217Z,11.38
2023-01-07T06:37:36.235Z,11.38
2023-01-07T06:38:36.261Z,11.38
2023-01-07T06:39:36.286Z,11.39
2023-01-07T06:40:36.311Z,11.39
2023-01-07T06:41:36.341Z,11.41
2023-01-07T06:42:36.484Z,11.38
2023-01-07T06:43:36.394Z,11.41
2023-01-07T06:44:36.417Z,11.41
2023-01-07T06:45:36.442Z,11.45
2023-01-07T06:46:36.507Z,11.34
2023-01-07T06:47:36.516Z,11.35
2023-01-07T06:48:36.514Z,11.31
2023-01-07T06:49:36.542Z,11.43
2023-01-07T06:50:36.571Z,11.42
2023-01-07T06:51:36.601Z,11.39
2023-01-07T06:52:36.621Z,11.35
2023-01-07T06:53:36.646Z,11.34
2023-01-07T06:54:36.669Z,11.38
2023-01-07T06:55:36.696Z,11.42
2023-01-07T06:56:36.729Z,11.34
2023-01-07T06:57:36.767Z,11.48
2023-01-07T06:58:36.906Z,11.38
2023-01-07T06:59:36.798Z,11.39
2023-01-07T07:00:36.828Z,11.34
2023-01-07T07:01:37.009Z,11.39
2023-01-07T07:02:37.002Z,11.45
2023-01-07T07:03:36.920Z,11.34
2023-01-07T07:04:36.928Z,11.33
2023-01-07T07:05:36.953Z,11.38
2023-01-07T07:06:36.983Z,11.39
2023-01-07T07:07:37.008Z,11.34
2023-01-07T07:08:37.033Z,11.41
2023-01-07T07:09:37.058Z,11.35
2023-01-07T07:10:37.081Z,11.35
2023-01-07T07:11:37.113Z,11.43
2023-01-07T07:12:37.160Z,11.42
2023-01-07T07:13:37.157Z,11.45
2023-01-07T07:14:37.307Z,11.52
2023-01-07T07:15:37.245Z,11.45
2023-01-07T07:16:37.247Z,11.46
2023-01-07T07:17:37.263Z,11.42
2023-01-07T07:18:37.293Z,11.41
2023-01-07T07:19:37.322Z,11.46
2023-01-07T07:20:37.341Z,11.42
2023-01-07T07:21:37.367Z,11.51
2023-01-07T07:22:37.403Z,11.45
2023-01-07T07:23:37.418Z,11.49
2023-01-07T07:24:37.447Z,11.41
2023-01-07T07:25:37.466Z,11.38
2023-01-07T07:26:37.494Z,11.43
2023-01-07T07:27:37.518Z,11.41
2023-01-07T07:28:37.543Z,11.42
2023-01-07T07:29:37.585Z,11.49
2023-01-07T07:30:47.012Z,11.43
2023-01-07T07:31:37.710Z,11.39
2023-01-07T07:32:37.648Z,11.48
2023-01-07T07:33:37.674Z,11.48
2023-01-07T07:34:37.699Z,11.34
2023-01-07T07:35:37.724Z,11.43
2023-01-07T07:36:37.756Z,11.39
2023-01-07T07:37:37.777Z,11.45
2023-01-07T07:38:37.817Z,11.46
2023-01-07T07:39:37.828Z,11.53
2023-01-07T07:40:37.853Z,11.48
2023-01-07T07:41:37.877Z,11.43
2023-01-07T07:43:11.592Z,11.48
2023-01-07T07:43:37.931Z,11.38
2023-01-07T07:44:37.959Z,11.38
2023-01-07T07:45:37.980Z,11.34
2023-01-07T07:46:40.025Z,11.45
2023-01-07T07:47:38.032Z,11.34
2023-01-07T07:48:38.059Z,11.31
2023-01-07T07:49:38.083Z,11.31
2023-01-07T07:50:38.111Z,11.34
2023-01-07T07:51:38.136Z,11.43
2023-01-07T07:52:38.163Z,11.41
2023-01-07T07:53:38.186Z,11.38
2023-01-07T07:54:38.215Z,11.43
2023-01-07T07:55:38.360Z,11.35
2023-01-07T07:56:38.265Z,11.38
2023-01-07T07:57:38.291Z,11.30
2023-01-07T07:58:38.316Z,11.27
2023-01-07T07:59:38.341Z,11.30
2023-01-07T08:00:38.370Z,11.35
2023-01-07T08:01:38.528Z,11.35
2023-01-07T08:02:38.541Z,11.42
2023-01-07T08:03:38.525Z,11.38
2023-01-07T08:04:38.471Z,11.42
2023-01-07T08:05:38.494Z,11.38
2023-01-07T08:06:38.546Z,11.38
2023-01-07T08:07:38.551Z,11.38
2023-01-07T08:08:38.578Z,11.33
2023-01-07T08:09:38.600Z,11.38
2023-01-07T08:10:38.636Z,11.39
2023-01-07T08:11:38.652Z,11.39
2023-01-07T08:12:38.698Z,11.48
2023-01-07T08:13:38.703Z,11.42
2023-01-07T08:14:38.733Z,11.42
2023-01-07T08:15:38.753Z,11.38
2023-01-07T08:16:38.839Z,11.43
2023-01-07T08:17:38.810Z,11.38
2023-01-07T08:18:38.943Z,11.38
2023-01-07T08:19:38.867Z,11.41
2023-01-07T08:20:38.885Z,11.38
2023-01-07T08:21:38.907Z,11.39
2023-01-07T08:22:38.958Z,11.42
2023-01-07T08:23:38.960Z,11.43
2023-01-07T08:24:38.987Z,11.46
2023-01-07T08:25:39.017Z,11.39
2023-01-07T08:26:39.038Z,11.41
2023-01-07T08:27:39.062Z,11.35
2023-01-07T08:28:39.086Z,11.42
2023-01-07T08:29:39.113Z,11.43
2023-01-07T08:30:39.145Z,11.53
2023-01-07T08:31:39.263Z,11.45
2023-01-07T08:32:39.199Z,11.46
2023-01-07T08:33:39.216Z,11.46
2023-01-07T08:34:39.355Z,11.45
2023-01-07T08:35:39.269Z,11.52
2023-01-07T08:36:39.310Z,11.52
2023-01-07T08:37:39.318Z,11.56
2023-01-07T08:38:39.349Z,11.49
2023-01-07T08:39:39.373Z,11.52
2023-01-07T08:40:39.400Z,11.56
2023-01-07T08:41:39.425Z,11.56
2023-01-07T08:42:39.450Z,11.52
2023-01-07T08:43:39.475Z,11.43
2023-01-07T08:44:39.512Z,11.41
2023-01-07T08:45:39.529Z,11.48
2023-01-07T08:46:39.608Z,11.49
2023-01-07T08:47:39.585Z,11.59
2023-01-07T08:48:39.611Z,11.53
2023-01-07T08:49:39.630Z,11.53
2023-01-07T08:50:39.771Z,11.59
2023-01-07T08:51:39.681Z,11.61
2023-01-07T08:52:39.709Z,11.53
2023-01-07T08:53:39.733Z,11.53
2023-01-07T08:54:39.760Z,11.52
2023-01-07T08:55:39.786Z,11.56
2023-01-07T08:56:39.813Z,11.56
2023-01-07T08:57:39.836Z,11.63
2023-01-07T08:58:39.863Z,11.66
2023-01-07T08:59:39.894Z,11.66
2023-01-07T09:00:39.985Z,11.53
2023-01-07T09:01:40.161Z,11.64
2023-01-07T09:02:40.066Z,11.63
2023-01-07T09:03:39.993Z,11.63
2023-01-07T09:04:40.026Z,11.63
2023-01-07T09:05:40.043Z,11.67
2023-01-07T09:06:40.189Z,11.70
2023-01-07T09:07:40.096Z,11.78
2023-01-07T09:08:40.123Z,11.61
2023-01-07T09:09:40.152Z,11.76
2023-01-07T09:10:40.175Z,11.73
2023-01-07T09:11:40.199Z,11.66
2023-01-07T09:12:40.235Z,11.75
2023-01-07T09:13:40.262Z,11.76
2023-01-07T09:14:40.283Z,11.75
2023-01-07T09:15:40.304Z,11.79
2023-01-07T09:16:40.416Z,11.81
2023-01-07T09:17:40.352Z,11.86
2023-01-07T09:18:40.381Z,11.85
2023-01-07T09:19:40.404Z,11.89
2023-01-07T09:20:40.437Z,11.94
2023-01-07T09:21:40.475Z,12.05
2023-01-07T09:22:40.610Z,12.05
2023-01-07T09:23:40.512Z,11.97
2023-01-07T09:24:40.540Z,12.04
2023-01-07T09:25:40.562Z,12.11
2023-01-07T09:26:40.590Z,12.07
2023-01-07T09:27:40.616Z,12.10
2023-01-07T09:28:40.650Z,12.07
2023-01-07T09:29:40.664Z,12.08
2023-01-07T09:30:40.695Z,12.07
2023-01-07T09:31:40.810Z,12.04
2023-01-07T09:32:40.759Z,12.00
2023-01-07T09:33:40.809Z,12.04
2023-01-07T09:34:40.801Z,12.05
2023-01-07T09:35:40.825Z,12.05
2023-01-07T09:36:40.853Z,12.13
2023-01-07T09:37:40.880Z,12.13
2023-01-07T09:38:41.022Z,12.13
2023-01-07T09:39:40.939Z,12.08
2023-01-07T09:40:40.967Z,12.23
2023-01-07T09:41:40.986Z,12.23
2023-01-07T09:42:41.011Z,12.34
2023-01-07T09:43:59.690Z,12.31
2023-01-07T09:44:41.083Z,12.40
2023-01-07T09:45:41.114Z,12.40
2023-01-07T09:46:41.122Z,12.37
2023-01-07T09:47:41.142Z,12.38
2023-01-07T09:48:41.172Z,12.40
2023-01-07T09:49:41.192Z,12.51
2023-01-07T09:50:41.227Z,12.33
2023-01-07T09:51:41.260Z,12.43
2023-01-07T09:52:41.277Z,12.41
2023-01-07T09:53:41.298Z,12.38
2023-01-07T09:54:41.448Z,12.37
2023-01-07T09:56:10.887Z,12.37
2023-01-07T09:56:41.380Z,12.34
2023-01-07T09:57:41.412Z,12.37
2023-01-07T09:58:41.433Z,12.40
2023-01-07T09:59:41.472Z,12.41
2023-01-07T10:00:41.485Z,12.40
2023-01-07T10:01:41.511Z,12.37
2023-01-07T10:02:41.617Z,12.40
2023-01-07T10:03:41.586Z,12.41
2023-01-07T10:04:41.590Z,12.33
2023-01-07T10:05:41.626Z,12.41
2023-01-07T10:06:43.869Z,12.34
2023-01-07T10:07:41.673Z,12.26
2023-01-07T10:08:41.696Z,12.26
2023-01-07T10:09:41.720Z,12.25
2023-01-07T10:10:41.863Z,12.25
2023-01-07T10:11:44.062Z,12.25
2023-01-07T10:12:41.810Z,12.26
2023-01-07T10:13:41.826Z,12.29
2023-01-07T10:14:41.857Z,12.28
2023-01-07T10:15:41.880Z,12.38
2023-01-07T10:16:41.959Z,12.38
2023-01-07T10:17:41.931Z,12.44
2023-01-07T10:18:41.961Z,12.45
2023-01-07T10:19:41.986Z,12.52
2023-01-07T10:20:42.012Z,12.56
2023-01-07T10:21:42.056Z,12.59
2023-01-07T10:22:42.067Z,12.58
2023-01-07T10:23:42.092Z,12.63
2023-01-07T10:24:42.118Z,12.71
2023-01-07T10:25:42.142Z,12.73
2023-01-07T10:26:42.281Z,12.73
2023-01-07T10:27:42.196Z,12.63
2023-01-07T10:28:42.222Z,12.73
2023-01-07T10:29:42.248Z,12.81
2023-01-07T10:30:42.276Z,12.81
2023-01-07T10:31:42.403Z,12.76
2023-01-07T10:32:42.330Z,12.71
2023-01-07T10:33:42.356Z,12.62
2023-01-07T10:34:42.382Z,12.77
2023-01-07T10:35:42.411Z,12.76
2023-01-07T10:36:42.436Z,12.80
2023-01-07T10:37:42.457Z,12.83
2023-01-07T10:38:42.491Z,12.86
2023-01-07T10:39:42.616Z,12.89
2023-01-07T10:40:42.543Z,12.88
2023-01-07T10:41:42.569Z,12.80
2023-01-07T10:42:42.726Z,12.94
2023-01-07T10:43:42.636Z,12.89
2023-01-07T10:44:42.653Z,12.89
2023-01-07T10:45:42.780Z,12.94
2023-01-07T10:46:42.709Z,12.89
2023-01-07T10:47:42.739Z,12.77
2023-01-07T10:48:42.757Z,12.88
2023-01-07T10:49:42.818Z,12.77
2023-01-07T10:50:42.812Z,12.76
2023-01-07T10:51:42.841Z,12.71
2023-01-07T10:52:42.861Z,12.70
2023-01-07T10:53:42.896Z,12.66
2023-01-07T10:54:42.914Z,12.73
2023-01-07T10:55:42.943Z,12.73
2023-01-07T10:56:42.973Z,12.69
2023-01-07T10:57:42.992Z,12.70
2023-01-07T10:58:43.139Z,12.66
2023-01-07T10:59:43.047Z,12.62
2023-01-07T11:00:43.090Z,12.66
2023-01-07T11:01:43.168Z,12.59
2023-01-07T11:02:43.185Z,12.70
2023-01-07T11:03:43.151Z,12.61
2023-01-07T11:04:43.200Z,12.65
2023-01-07T11:05:43.202Z,12.65
2023-01-07T11:06:43.237Z,12.53
2023-01-07T11:07:43.264Z,12.61
2023-01-07T11:08:43.290Z,12.62
2023-01-07T11:09:43.323Z,12.59
2023-01-07T11:10:43.349Z,12.58
2023-01-07T11:11:43.362Z,12.53
2023-01-07T11:12:43.389Z,12.47
2023-01-07T11:13:43.416Z,12.55
2023-01-07T11:14:43.557Z,12.55
2023-01-07T11:15:43.469Z,12.58
2023-01-07T11:16:43.602Z,12.55
2023-01-07T11:17:43.542Z,12.56
2023-01-07T11:18:43.553Z,12.52
2023-01-07T11:19:43.575Z,12.52
2023-01-07T11:20:43.602Z,12.56
2023-01-07T11:21:44.764Z,12.63
2023-01-07T11:22:43.651Z,12.62
2023-01-07T11:23:44.152Z,12.63
2023-01-07T11:24:43.712Z,12.56
2023-01-07T11:25:43.737Z,12.61
2023-01-07T11:26:43.769Z,12.59
2023-01-07T11:27:43.787Z,12.56
2023-01-07T11:28:43.815Z,12.59
2023-01-07T11:29:43.837Z,12.59
2023-01-07T11:30:43.976Z,12.61
2023-01-07T11:31:43.959Z,12.56
2023-01-07T11:32:43.918Z,12.56
2023-01-07T11:34:01.860Z,12.58
2023-01-07T11:34:43.971Z,12.61
2023-01-07T11:35:43.997Z,12.58
2023-01-07T11:36:44.031Z,12.59
2023-01-07T11:37:44.048Z,12.61
2023-01-07T11:38:44.074Z,12.55
2023-01-07T11:39:44.102Z,12.63
2023-01-07T11:40:44.131Z,12.65
2023-01-07T11:41:44.155Z,12.62
2023-01-07T11:42:44.180Z,12.66
2023-01-07T11:43:44.207Z,12.71
2023-01-07T11:44:44.231Z,12.63
2023-01-07T11:45:44.267Z,12.69
2023-01-07T11:46:44.443Z,12.66
2023-01-07T11:47:44.312Z,12.59
2023-01-07T11:48:44.339Z,12.61
2023-01-07T11:49:44.379Z,12.66
2023-01-07T11:50:44.390Z,12.69
2023-01-07T11:51:44.418Z,12.73
2023-01-07T11:52:44.443Z,12.76
2023-01-07T11:53:44.473Z,12.66
2023-01-07T11:54:44.495Z,12.74
2023-01-07T11:55:44.527Z,12.73
2023-01-07T11:56:44.548Z,12.76
2023-01-07T11:57:44.574Z,12.78
2023-01-07T11:58:44.615Z,12.71
2023-01-07T11:59:44.628Z,12.73
2023-01-07T12:00:44.654Z,12.70
2023-01-07T12:01:44.681Z,12.71
2023-01-07T12:02:44.867Z,12.70
2023-01-07T12:03:44.779Z,12.66
2023-01-07T12:04:44.760Z,12.61
2023-01-07T12:05:44.793Z,12.61
2023-01-07T12:06:44.816Z,12.69
2023-01-07T12:07:44.839Z,12.69
2023-01-07T12:08:44.865Z,12.59
2023-01-07T12:09:44.892Z,12.56
2023-01-07T12:10:44.917Z,12.69
2023-01-07T12:11:44.947Z,12.73
2023-01-07T12:12:44.971Z,12.73
2023-01-07T12:13:45.006Z,12.81
2023-01-07T12:14:45.021Z,12.83
2023-01-07T12:15:45.051Z,12.91
2023-01-07T12:16:45.176Z,12.92
2023-01-07T12:17:45.103Z,12.98
2023-01-07T12:18:45.242Z,13.06
2023-01-07T12:19:45.158Z,12.96
2023-01-07T12:20:45.184Z,12.98
2023-01-07T12:21:45.209Z,13.02
2023-01-07T12:22:45.244Z,13.01
2023-01-07T12:23:45.274Z,13.07
2023-01-07T12:24:45.287Z,13.10
2023-01-07T12:25:45.314Z,13.11
2023-01-07T12:26:45.354Z,13.11
2023-01-07T12:27:45.373Z,13.17
2023-01-07T12:28:45.392Z,13.19
2023-01-07T12:29:45.434Z,13.17
2023-01-07T12:30:45.449Z,13.20
2023-01-07T12:31:45.532Z,13.21
2023-01-07T12:32:45.501Z,13.25
2023-01-07T12:33:45.529Z,13.16
2023-01-07T12:34:45.684Z,13.19
2023-01-07T12:35:45.589Z,13.17
2023-01-07T12:36:45.619Z,13.06
2023-01-07T12:37:45.636Z,13.10
2023-01-07T12:38:45.661Z,13.13
2023-01-07T12:39:45.689Z,13.14
2023-01-07T12:40:45.715Z,13.06
2023-01-07T12:41:45.757Z,13.07
2023-01-07T12:42:45.771Z,13.03
2023-01-07T12:43:45.796Z,12.99
2023-01-07T12:44:45.822Z,13.07
2023-01-07T12:45:45.895Z,13.07
2023-01-07T12:46:45.874Z,13.03
2023-01-07T12:47:45.955Z,12.99
2023-01-07T12:48:45.938Z,12.99
2023-01-07T12:49:45.958Z,12.99
2023-01-07T12:50:46.005Z,12.96
2023-01-07T12:51:46.011Z,12.92
2023-01-07T12:52:46.051Z,12.96